HJN weather

Estancia Palitue Heliport
Junin De Los Andes, Neuquén Province, Argentina

Public forecast

Using degrees Celsius for public forecast. Weather courtesy of forecast.io.

Closest aviation weather report (METAR) to Estancia Palitue Heliport

Report is more than 6 hours old.

Closest report is Aviador C. Campos Airport, 14.0 nm (25.9 km) SSW. Retrieved 2020/05/18 15:30 UTC (11 days ago):

SAZY 181530Z 29020G34KT 250V330 9999 VCSH BKN030 15/07 Q1007

Closest aviation forecast (TAF) to Estancia Palitue Heliport

Forecast is more than 12 hours old.

Closest forecast is Aviador C. Campos Airport, 14.0 nm (25.9 km) SSW. Retrieved 2020-04-04 00:45 UTC (2 months ago):

TAF SAZY 032300Z 0400/0424 27010KT 9999 BKN030 TX21/0419Z TN03/0409Z BECMG 0405/0407 27008KT SCT040 BECMG 0408/0410 26005KT CAVOK BECMG 0415/0417 VRB03KT